Forseti — V2PV4 — position and weather

sailwx.info

Track history (hours):
 
Tides and Currents Weather Stations Pressure Air Temp Water Temp Dewpoint Dewpoint Depression Visibility Wind Speed Wind Dir Waves Ship Positions

Forseti

Last reported at 2017-Apr-25 08:17 UTC. Time now 2017-Apr-29 15:25 UTC.
Position N 57°46' E 010°41'.

Length 85 m; draft 5.2 m.

Type: Cargo ship. MMSI: 304010297.

Date/timePositionNaut miles runAvg speedWind from/ knotsBaromVisibWave heightAir tempDewpointWater temp
2017-Apr-25 08:17N 57°46' E 010°41'3 8.9
2017-Apr-25 08:00N 57°46' E 010°45'5 9.1
2017-Apr-25 07:30N 57°42' E 010°43'4 8.4
2017-Apr-25 07:00N 57°39' E 010°37'0 0.1
2017-Apr-25 06:16N 57°39' E 010°37'0 0.0
2017-Apr-25 05:34N 57°39' E 010°37'0 0.0
2017-Apr-25 04:22N 57°39' E 010°37'0 0.0
2017-Apr-25 03:13N 57°39' E 010°37'0 0.0
2017-Apr-25 02:58N 57°39' E 010°37'0 0.1
2017-Apr-25 02:25N 57°39' E 010°37'0 0.1
2017-Apr-25 01:58N 57°39' E 010°37'0 0.0
2017-Apr-25 00:43N 57°39' E 010°37'0 0.0
2017-Apr-25 00:16N 57°39' E 010°37'0 0.1
2017-Apr-24 23:55N 57°39' E 010°37'0 0.0
2017-Apr-24 23:16N 57°39' E 010°37'0 0.0
2017-Apr-24 22:52N 57°39' E 010°37'0 0.1
2017-Apr-24 22:28N 57°39' E 010°37'0 0.0
2017-Apr-24 21:40N 57°39' E 010°37'0 0.2
2017-Apr-24 21:22N 57°39' E 010°37'0 0.0
2017-Apr-24 20:28N 57°39' E 010°37'0 0.0
2017-Apr-24 19:52N 57°39' E 010°37'0 0.0
2017-Apr-24 19:28N 57°39' E 010°37'0 0.0
2017-Apr-24 18:40N 57°39' E 010°37'0 0.1
2017-Apr-24 18:19N 57°39' E 010°37'0 0.0
2017-Apr-24 17:58N 57°39' E 010°37'0 0.0
2017-Apr-24 17:19N 57°39' E 010°37'0 0.1
2017-Apr-24 16:49N 57°39' E 010°37'0 0.0
2017-Apr-24 16:28N 57°39' E 010°37'0 0.1
2017-Apr-24 15:46N 57°39' E 010°37'0 0.2
2017-Apr-24 15:28N 57°39' E 010°37'0 0.0
2017-Apr-24 14:22N 57°39' E 010°37'0 0.0
2017-Apr-24 13:22N 57°39' E 010°37'0 0.0
2017-Apr-24 12:58N 57°39' E 010°37'0 0.1
2017-Apr-24 12:16N 57°39' E 010°37'0 0.0
2017-Apr-24 11:52N 57°39' E 010°37'0 0.0
2017-Apr-24 11:28N 57°39' E 010°37'0 0.1
2017-Apr-24 10:58N 57°39' E 010°37'0 0.0
2017-Apr-24 10:28N 57°39' E 010°37'0 0.0
2017-Apr-24 09:34N 57°39' E 010°37'0 0.0
2017-Apr-24 08:58N 57°39' E 010°37'0 0.1
2017-Apr-24 08:25N 57°39' E 010°37'0 0.0
2017-Apr-24 07:55N 57°39' E 010°37'0 0.0
2017-Apr-24 07:22N 57°39' E 010°37'0 0.0
2017-Apr-24 06:49N 57°39' E 010°37'0 0.0
2017-Apr-24 06:28N 57°39' E 010°37'0 0.0
2017-Apr-24 05:58N 57°39' E 010°37'0 0.0
2017-Apr-24 05:16N 57°39' E 010°37'0 0.0
2017-Apr-24 04:52N 57°39' E 010°37'0 0.0
2017-Apr-24 04:25N 57°39' E 010°37'0 0.0
2017-Apr-24 04:01N 57°39' E 010°37'0 0.0
2017-Apr-24 03:31N 57°39' E 010°37'0 0.0
2017-Apr-24 02:59N 57°39' E 010°37'2 4.5
2017-Apr-24 02:30N 57°38' E 010°41'4 8.1
2017-Apr-24 02:00N 57°37' E 010°48'4 8.2
2017-Apr-24 01:30N 57°36' E 010°55'4 8.1
2017-Apr-24 01:00N 57°35' E 011°03'4 7.9
2017-Apr-24 00:30N 57°35' E 011°10'4 8.2
2017-Apr-24 00:00N 57°33' E 011°17'4 8.4
2017-Apr-23 23:30N 57°30' E 011°23'4 8.1
2017-Apr-23 23:01N 57°27' E 011°28'4 8.2
2017-Apr-23 22:30N 57°23' E 011°30'4 7.9
2017-Apr-23 22:00N 57°19' E 011°33'4 8.2
2017-Apr-23 21:30N 57°15' E 011°35'5 8.6
2017-Apr-23 20:59N 57°11' E 011°38'4 8.6
2017-Apr-23 20:31N 57°07' E 011°41'63 8.0
2017-Apr-23 12:38N 56°10' E 012°27'1 8.3
2017-Apr-23 12:30N 56°09' E 012°28'4 8.3
2017-Apr-23 12:00N 56°06' E 012°34'4 8.8
2017-Apr-23 11:30N 56°03' E 012°39'4 8.6
2017-Apr-23 11:00N 55°59' E 012°42'5 9.4
2017-Apr-23 10:30N 55°55' E 012°45'5 9.7
2017-Apr-23 10:00N 55°50' E 012°44'510.1
2017-Apr-23 09:30N 55°45' E 012°42'5 9.9
2017-Apr-23 09:00N 55°40' E 012°42'5 9.4
2017-Apr-23 08:30N 55°35' E 012°42'5 9.6
2017-Apr-23 08:00N 55°31' E 012°43'5 9.9
2017-Apr-23 07:31N 55°26' E 012°42'510.2
2017-Apr-23 07:00N 55°21' E 012°41'4 8.7
2017-Apr-23 06:30N 55°17' E 012°46'5 9.7
2017-Apr-23 06:00N 55°16' E 012°54'510.0
2017-Apr-23 05:30N 55°16' E 013°03'510.0
2017-Apr-23 05:00N 55°15' E 013°12'17 9.9
2017-Apr-23 03:18N 55°15' E 013°41'310.4
2017-Apr-23 03:00N 55°14' E 013°47'510.4
2017-Apr-23 02:30N 55°14' E 013°56'510.5
2017-Apr-23 02:00N 55°14' E 014°05'510.5
2017-Apr-23 01:30N 55°14' E 014°14'510.5
2017-Apr-23 01:00N 55°17' E 014°21'510.8
2017-Apr-23 00:31N 55°21' E 014°28'510.8
2017-Apr-23 00:01N 55°25' E 014°34'510.7
2017-Apr-22 23:31N 55°28' E 014°42'510.5
2017-Apr-22 23:00N 55°31' E 014°50'510.7
2017-Apr-22 22:30N 55°33' E 014°58'510.7
2017-Apr-22 22:00N 55°36' E 015°06'510.5
2017-Apr-22 21:30N 55°39' E 015°14'610.6
2017-Apr-22 20:58N 55°42' E 015°23'  
2017-Apr-16 04:56N 55°34' E 015°38'3 7.8
2017-Apr-16 04:30N 55°34' E 015°32'4 8.0
2017-Apr-16 04:00N 55°34' E 015°26'4 8.3
2017-Apr-16 03:30N 55°34' E 015°18'4 7.8
2017-Apr-16 02:59N 55°33' E 015°11'4 7.5
2017-Apr-16 02:31N 55°31' E 015°05'4 7.7
2017-Apr-16 02:01N 55°29' E 014°60'4 7.6
2017-Apr-16 01:30N 55°27' E 014°54'4 7.1
2017-Apr-16 01:00N 55°26' E 014°48'3 6.5
2017-Apr-16 00:30N 55°24' E 014°43'3 6.2
2017-Apr-16 00:00N 55°22' E 014°39'3 6.2
2017-Apr-15 23:30N 55°20' E 014°35'3 5.4
2017-Apr-15 23:00N 55°18' E 014°32'3 5.7
2017-Apr-15 22:30N 55°16' E 014°29'3 5.8
2017-Apr-15 22:00N 55°14' E 014°26'3 5.8
2017-Apr-15 21:30N 55°11' E 014°22'3 5.5
2017-Apr-15 21:00N 55°10' E 014°18'3 5.7
2017-Apr-15 20:30N 55°10' E 014°13'4 7.2
2017-Apr-15 20:00N 55°10' E 014°07'4 8.7
2017-Apr-15 19:30N 55°10' E 013°59'510.0
2017-Apr-15 19:00N 55°10' E 013°50'610.5
2017-Apr-15 18:25N 55°11' E 013°40'1910.6
2017-Apr-15 16:36N 55°13' E 013°06'111.1
2017-Apr-15 16:29N 55°13' E 013°04'510.6
2017-Apr-15 15:59N 55°14' E 012°55'510.9
2017-Apr-15 15:30N 55°16' E 012°46'510.9
2017-Apr-15 15:00N 55°19' E 012°38'510.8
2017-Apr-15 14:30N 55°24' E 012°39'1110.6
2017-Apr-15 13:30N 55°34' E 012°42'5 9.6
2017-Apr-15 13:00N 55°39' E 012°41'5 9.6
2017-Apr-15 12:30N 55°44' E 012°41'5 9.5
2017-Apr-15 12:00N 55°49' E 012°40'510.0
2017-Apr-15 11:30N 55°54' E 012°39'510.0
2017-Apr-15 11:00N 55°59' E 012°38'5 9.6
2017-Apr-15 10:30N 56°03' E 012°38'4 8.3
2017-Apr-15 10:00N 56°06' E 012°32'4 8.5
2017-Apr-15 09:30N 56°08' E 012°26'  
Track history (hours):
 
Tides and Currents Weather Stations Pressure Air Temp Water Temp Dewpoint Dewpoint Depression Visibility Wind Speed Wind Dir Waves Ship Positions

Forseti

Last reported at 2017-Apr-25 08:17 UTC. Time now 2017-Apr-29 15:25 UTC.
Position N 57°46' E 010°41'.

Length 85 m; draft 5.2 m.

Type: Cargo ship. MMSI: 304010297.

Date/timePositionNaut miles runAvg speedWind from/ knotsBaromVisibWave heightAir tempDewpointWater temp
2017-Apr-25 08:17N 57°46' E 010°41'3 8.9
2017-Apr-25 08:00N 57°46' E 010°45'5 9.1
2017-Apr-25 07:30N 57°42' E 010°43'4 8.4
2017-Apr-25 07:00N 57°39' E 010°37'0 0.1
2017-Apr-25 06:16N 57°39' E 010°37'0 0.0
2017-Apr-25 05:34N 57°39' E 010°37'0 0.0
2017-Apr-25 04:22N 57°39' E 010°37'0 0.0
2017-Apr-25 03:13N 57°39' E 010°37'0 0.0
2017-Apr-25 02:58N 57°39' E 010°37'0 0.1
2017-Apr-25 02:25N 57°39' E 010°37'0 0.1
2017-Apr-25 01:58N 57°39' E 010°37'0 0.0
2017-Apr-25 00:43N 57°39' E 010°37'0 0.0
2017-Apr-25 00:16N 57°39' E 010°37'0 0.1
2017-Apr-24 23:55N 57°39' E 010°37'0 0.0
2017-Apr-24 23:16N 57°39' E 010°37'0 0.0
2017-Apr-24 22:52N 57°39' E 010°37'0 0.1
2017-Apr-24 22:28N 57°39' E 010°37'0 0.0
2017-Apr-24 21:40N 57°39' E 010°37'0 0.2
2017-Apr-24 21:22N 57°39' E 010°37'0 0.0
2017-Apr-24 20:28N 57°39' E 010°37'0 0.0
2017-Apr-24 19:52N 57°39' E 010°37'0 0.0
2017-Apr-24 19:28N 57°39' E 010°37'0 0.0
2017-Apr-24 18:40N 57°39' E 010°37'0 0.1
2017-Apr-24 18:19N 57°39' E 010°37'0 0.0
2017-Apr-24 17:58N 57°39' E 010°37'0 0.0
2017-Apr-24 17:19N 57°39' E 010°37'0 0.1
2017-Apr-24 16:49N 57°39' E 010°37'0 0.0
2017-Apr-24 16:28N 57°39' E 010°37'0 0.1
2017-Apr-24 15:46N 57°39' E 010°37'0 0.2
2017-Apr-24 15:28N 57°39' E 010°37'0 0.0
2017-Apr-24 14:22N 57°39' E 010°37'0 0.0
2017-Apr-24 13:22N 57°39' E 010°37'0 0.0
2017-Apr-24 12:58N 57°39' E 010°37'0 0.1
2017-Apr-24 12:16N 57°39' E 010°37'0 0.0
2017-Apr-24 11:52N 57°39' E 010°37'0 0.0
2017-Apr-24 11:28N 57°39' E 010°37'0 0.1
2017-Apr-24 10:58N 57°39' E 010°37'0 0.0
2017-Apr-24 10:28N 57°39' E 010°37'0 0.0
2017-Apr-24 09:34N 57°39' E 010°37'0 0.0
2017-Apr-24 08:58N 57°39' E 010°37'0 0.1
2017-Apr-24 08:25N 57°39' E 010°37'0 0.0
2017-Apr-24 07:55N 57°39' E 010°37'0 0.0
2017-Apr-24 07:22N 57°39' E 010°37'0 0.0
2017-Apr-24 06:49N 57°39' E 010°37'0 0.0
2017-Apr-24 06:28N 57°39' E 010°37'0 0.0
2017-Apr-24 05:58N 57°39' E 010°37'0 0.0
2017-Apr-24 05:16N 57°39' E 010°37'0 0.0
2017-Apr-24 04:52N 57°39' E 010°37'0 0.0
2017-Apr-24 04:25N 57°39' E 010°37'0 0.0
2017-Apr-24 04:01N 57°39' E 010°37'0 0.0
2017-Apr-24 03:31N 57°39' E 010°37'0 0.0
2017-Apr-24 02:59N 57°39' E 010°37'2 4.5
2017-Apr-24 02:30N 57°38' E 010°41'4 8.1
2017-Apr-24 02:00N 57°37' E 010°48'4 8.2
2017-Apr-24 01:30N 57°36' E 010°55'4 8.1
2017-Apr-24 01:00N 57°35' E 011°03'4 7.9
2017-Apr-24 00:30N 57°35' E 011°10'4 8.2
2017-Apr-24 00:00N 57°33' E 011°17'4 8.4
2017-Apr-23 23:30N 57°30' E 011°23'4 8.1
2017-Apr-23 23:01N 57°27' E 011°28'4 8.2
2017-Apr-23 22:30N 57°23' E 011°30'4 7.9
2017-Apr-23 22:00N 57°19' E 011°33'4 8.2
2017-Apr-23 21:30N 57°15' E 011°35'5 8.6
2017-Apr-23 20:59N 57°11' E 011°38'4 8.6
2017-Apr-23 20:31N 57°07' E 011°41'63 8.0
2017-Apr-23 12:38N 56°10' E 012°27'1 8.3
2017-Apr-23 12:30N 56°09' E 012°28'4 8.3
2017-Apr-23 12:00N 56°06' E 012°34'4 8.8
2017-Apr-23 11:30N 56°03' E 012°39'4 8.6
2017-Apr-23 11:00N 55°59' E 012°42'5 9.4
2017-Apr-23 10:30N 55°55' E 012°45'5 9.7
2017-Apr-23 10:00N 55°50' E 012°44'510.1
2017-Apr-23 09:30N 55°45' E 012°42'5 9.9
2017-Apr-23 09:00N 55°40' E 012°42'5 9.4
2017-Apr-23 08:30N 55°35' E 012°42'5 9.6
2017-Apr-23 08:00N 55°31' E 012°43'5 9.9
2017-Apr-23 07:31N 55°26' E 012°42'510.2
2017-Apr-23 07:00N 55°21' E 012°41'4 8.7
2017-Apr-23 06:30N 55°17' E 012°46'5 9.7
2017-Apr-23 06:00N 55°16' E 012°54'510.0
2017-Apr-23 05:30N 55°16' E 013°03'510.0
2017-Apr-23 05:00N 55°15' E 013°12'17 9.9
2017-Apr-23 03:18N 55°15' E 013°41'310.4
2017-Apr-23 03:00N 55°14' E 013°47'510.4
2017-Apr-23 02:30N 55°14' E 013°56'510.5
2017-Apr-23 02:00N 55°14' E 014°05'510.5
2017-Apr-23 01:30N 55°14' E 014°14'510.5
2017-Apr-23 01:00N 55°17' E 014°21'510.8
2017-Apr-23 00:31N 55°21' E 014°28'510.8
2017-Apr-23 00:01N 55°25' E 014°34'510.7
2017-Apr-22 23:31N 55°28' E 014°42'510.5
2017-Apr-22 23:00N 55°31' E 014°50'510.7
2017-Apr-22 22:30N 55°33' E 014°58'510.7
2017-Apr-22 22:00N 55°36' E 015°06'510.5
2017-Apr-22 21:30N 55°39' E 015°14'610.6
2017-Apr-22 20:58N 55°42' E 015°23'  
2017-Apr-16 04:56N 55°34' E 015°38'3 7.8
2017-Apr-16 04:30N 55°34' E 015°32'4 8.0
2017-Apr-16 04:00N 55°34' E 015°26'4 8.3
2017-Apr-16 03:30N 55°34' E 015°18'4 7.8
2017-Apr-16 02:59N 55°33' E 015°11'4 7.5
2017-Apr-16 02:31N 55°31' E 015°05'4 7.7
2017-Apr-16 02:01N 55°29' E 014°60'4 7.6
2017-Apr-16 01:30N 55°27' E 014°54'4 7.1
2017-Apr-16 01:00N 55°26' E 014°48'3 6.5
2017-Apr-16 00:30N 55°24' E 014°43'3 6.2
2017-Apr-16 00:00N 55°22' E 014°39'3 6.2
2017-Apr-15 23:30N 55°20' E 014°35'3 5.4
2017-Apr-15 23:00N 55°18' E 014°32'3 5.7
2017-Apr-15 22:30N 55°16' E 014°29'3 5.8
2017-Apr-15 22:00N 55°14' E 014°26'3 5.8
2017-Apr-15 21:30N 55°11' E 014°22'3 5.5
2017-Apr-15 21:00N 55°10' E 014°18'3 5.7
2017-Apr-15 20:30N 55°10' E 014°13'4 7.2
2017-Apr-15 20:00N 55°10' E 014°07'4 8.7
2017-Apr-15 19:30N 55°10' E 013°59'510.0
2017-Apr-15 19:00N 55°10' E 013°50'610.5
2017-Apr-15 18:25N 55°11' E 013°40'1910.6
2017-Apr-15 16:36N 55°13' E 013°06'111.1
2017-Apr-15 16:29N 55°13' E 013°04'510.6
2017-Apr-15 15:59N 55°14' E 012°55'510.9
2017-Apr-15 15:30N 55°16' E 012°46'510.9
2017-Apr-15 15:00N 55°19' E 012°38'510.8
2017-Apr-15 14:30N 55°24' E 012°39'1110.6
2017-Apr-15 13:30N 55°34' E 012°42'5 9.6
2017-Apr-15 13:00N 55°39' E 012°41'5 9.6
2017-Apr-15 12:30N 55°44' E 012°41'5 9.5
2017-Apr-15 12:00N 55°49' E 012°40'510.0
2017-Apr-15 11:30N 55°54' E 012°39'510.0
2017-Apr-15 11:00N 55°59' E 012°38'5 9.6
2017-Apr-15 10:30N 56°03' E 012°38'4 8.3
2017-Apr-15 10:00N 56°06' E 012°32'4 8.5
2017-Apr-15 09:30N 56°08' E 012°26'  

Dump ship's entire track history